createdAt,value
2024-03-05T00:00:22.821Z,29.30
2024-03-05T00:01:55.098Z,29.30
2024-03-05T00:03:27.441Z,28.00
2024-03-05T00:04:59.305Z,30.73
2024-03-05T00:06:31.194Z,30.03
2024-03-05T00:08:03.842Z,29.80
2024-03-05T00:09:35.894Z,30.33
2024-03-05T00:11:08.801Z,29.50
2024-03-05T00:12:40.759Z,30.40
2024-03-05T00:14:12.551Z,29.80
2024-03-05T00:15:44.407Z,29.63
2024-03-05T00:17:16.218Z,29.23
2024-03-05T00:18:48.089Z,28.50
2024-03-05T00:20:20.403Z,31.17
2024-03-05T00:21:52.568Z,30.20
2024-03-05T00:23:25.109Z,31.33
2024-03-05T00:24:59.636Z,28.73
2024-03-05T00:26:31.468Z,29.97
2024-03-05T00:28:03.438Z,31.07
2024-03-05T00:29:35.212Z,30.13
2024-03-05T00:31:07.036Z,29.23
2024-03-05T00:32:38.949Z,31.17
2024-03-05T00:34:10.837Z,29.60
2024-03-05T00:35:43.211Z,29.63
2024-03-05T00:37:14.971Z,28.80
2024-03-05T00:38:46.707Z,28.50
2024-03-05T00:40:19.634Z,28.70
2024-03-05T00:41:51.509Z,30.30
2024-03-05T00:43:23.602Z,29.47
2024-03-05T00:44:55.370Z,30.10
2024-03-05T00:46:27.273Z,31.23
2024-03-05T00:47:59.120Z,30.20
2024-03-05T00:49:30.926Z,28.53
2024-03-05T00:51:03.448Z,29.53
2024-03-05T00:52:35.522Z,28.53
2024-03-05T00:54:07.814Z,31.40
2024-03-05T00:55:40.223Z,29.10
2024-03-05T00:57:12.948Z,29.73
2024-03-05T00:58:44.789Z,30.43
2024-03-05T01:00:20.641Z,29.60
2024-03-05T01:01:52.522Z,28.03
2024-03-05T01:03:24.358Z,28.70
2024-03-05T01:04:56.213Z,29.43
2024-03-05T01:06:28.103Z,30.73
2024-03-05T01:08:00.286Z,27.73
2024-03-05T01:09:32.127Z,27.33
2024-03-05T01:11:04.158Z,30.17
2024-03-05T01:12:36.052Z,29.23
2024-03-05T01:14:07.845Z,29.43
2024-03-05T01:15:39.594Z,29.03
2024-03-05T01:17:13.472Z,30.90
2024-03-05T01:18:45.232Z,30.43
2024-03-05T01:20:17.482Z,27.00
2024-03-05T01:21:49.396Z,29.73
2024-03-05T01:23:21.773Z,28.37
2024-03-05T01:24:53.586Z,29.10
2024-03-05T01:26:25.315Z,27.87
2024-03-05T01:27:58.968Z,28.53
2024-03-05T01:29:31.714Z,29.80
2024-03-05T01:31:03.702Z,29.70
2024-03-05T01:32:36.840Z,28.40
2024-03-05T01:34:08.617Z,29.80
2024-03-05T01:35:42.115Z,27.30
2024-03-05T01:37:14.281Z,30.60
2024-03-05T01:38:46.069Z,28.00
2024-03-05T01:40:20.390Z,30.43
2024-03-05T01:41:53.507Z,28.97
2024-03-05T01:43:25.464Z,27.17
2024-03-05T01:44:57.365Z,27.67
2024-03-05T01:46:29.605Z,28.23
2024-03-05T01:48:02.137Z,28.40
2024-03-05T01:49:35.183Z,28.17
2024-03-05T01:51:07.401Z,29.23
2024-03-05T01:52:39.662Z,28.77
2024-03-05T01:54:13.641Z,28.27
2024-03-05T01:55:47.811Z,28.70
2024-03-05T01:57:22.856Z,28.80
2024-03-05T01:58:55.796Z,28.50
2024-03-05T02:00:27.774Z,29.17
2024-03-05T02:01:59.703Z,29.20
2024-03-05T02:03:33.179Z,29.07
2024-03-05T02:05:06.589Z,28.27
2024-03-05T02:06:41.998Z,29.27
2024-03-05T02:08:18.170Z,26.60
2024-03-05T02:09:53.267Z,28.00
2024-03-05T02:11:25.512Z,29.67
2024-03-05T02:12:58.231Z,29.53
2024-03-05T02:14:31.824Z,29.00
2024-03-05T02:16:03.852Z,29.90
2024-03-05T02:17:35.659Z,28.17
2024-03-05T02:19:08.852Z,27.60
2024-03-05T02:20:40.741Z,29.80
2024-03-05T02:22:12.677Z,29.60
2024-03-05T02:23:44.488Z,29.13
2024-03-05T02:25:18.652Z,29.07
2024-03-05T02:26:51.704Z,29.40
2024-03-05T02:28:24.052Z,29.13
2024-03-05T02:29:56.253Z,29.80
2024-03-05T02:31:28.861Z,29.80
2024-03-05T02:33:01.683Z,29.40
2024-03-05T02:34:33.985Z,28.90
2024-03-05T02:36:08.057Z,28.80
2024-03-05T02:37:40.552Z,28.50
2024-03-05T02:39:13.177Z,29.13
2024-03-05T02:40:45.292Z,28.63
2024-03-05T02:42:17.271Z,28.53
2024-03-05T02:43:49.189Z,28.70
2024-03-05T02:45:21.020Z,28.70
2024-03-05T02:46:52.893Z,30.83
2024-03-05T02:48:25.079Z,30.80
2024-03-05T02:49:57.243Z,28.97
2024-03-05T02:51:29.903Z,29.10
2024-03-05T02:53:01.815Z,28.37
2024-03-05T02:54:34.823Z,29.63
2024-03-05T02:56:07.249Z,28.87
2024-03-05T02:57:42.469Z,27.40
2024-03-05T02:59:18.423Z,29.77
2024-03-05T03:00:50.932Z,28.87
2024-03-05T03:02:22.682Z,27.67
2024-03-05T03:03:54.549Z,29.90
2024-03-05T03:05:26.667Z,28.80
2024-03-05T03:06:58.404Z,28.93
2024-03-05T03:08:30.743Z,29.97
2024-03-05T03:10:02.509Z,27.90
2024-03-05T03:11:34.986Z,29.17
2024-03-05T03:13:06.804Z,29.87
2024-03-05T03:14:41.392Z,28.80
2024-03-05T03:16:14.706Z,29.23
2024-03-05T03:17:47.207Z,30.13
2024-03-05T03:19:19.083Z,27.87
2024-03-05T03:20:50.851Z,29.73
2024-03-05T03:22:22.711Z,29.40
2024-03-05T03:23:55.625Z,29.20
2024-03-05T03:25:27.427Z,29.20
2024-03-05T03:26:59.233Z,30.13
2024-03-05T03:28:31.065Z,28.27
2024-03-05T03:30:05.233Z,29.40
2024-03-05T03:31:37.064Z,30.17
2024-03-05T03:33:09.684Z,29.70
2024-03-05T03:34:41.823Z,29.00
2024-03-05T03:36:25.246Z,29.70
2024-03-05T03:37:57.037Z,29.37
2024-03-05T03:39:29.040Z,31.33
2024-03-05T03:41:00.859Z,30.13
2024-03-05T03:42:32.704Z,28.70
2024-03-05T03:44:04.569Z,29.97
2024-03-05T03:45:36.557Z,30.90
2024-03-05T03:47:08.469Z,29.87
2024-03-05T03:48:40.245Z,30.97
2024-03-05T03:50:12.251Z,29.63
2024-03-05T03:51:44.250Z,29.50
2024-03-05T03:53:16.025Z,31.37
2024-03-05T03:54:49.192Z,28.30
2024-03-05T03:56:21.777Z,29.83
2024-03-05T03:57:54.360Z,29.73
2024-03-05T03:59:26.377Z,30.30
2024-03-05T04:01:00.403Z,29.70
2024-03-05T04:02:32.250Z,30.80
2024-03-05T04:04:04.163Z,28.20
2024-03-05T04:05:35.924Z,30.53
2024-03-05T04:07:07.692Z,29.00
2024-03-05T04:08:39.730Z,29.83
2024-03-05T04:10:14.477Z,30.47
2024-03-05T04:11:47.313Z,30.10
2024-03-05T04:13:19.243Z,30.20
2024-03-05T04:14:53.036Z,30.27
2024-03-05T04:16:25.608Z,30.73
2024-03-05T04:17:58.849Z,28.40
2024-03-05T04:19:31.872Z,29.97
2024-03-05T04:21:04.176Z,29.97
2024-03-05T04:22:38.930Z,30.70
2024-03-05T04:24:16.846Z,30.00
2024-03-05T04:25:48.789Z,31.07
2024-03-05T04:27:21.665Z,30.37
2024-03-05T04:28:55.945Z,32.47
2024-03-05T04:30:27.984Z,31.40
2024-03-05T04:32:12.996Z,30.60
2024-03-05T04:33:44.831Z,32.10
2024-03-05T04:35:17.435Z,30.90
2024-03-05T04:36:53.789Z,31.37
2024-03-05T04:38:27.303Z,30.67
2024-03-05T04:39:59.144Z,30.07
2024-03-05T04:41:30.897Z,31.90
2024-03-05T04:43:02.832Z,31.50
2024-03-05T04:44:35.461Z,31.43
2024-03-05T04:46:07.414Z,33.23
2024-03-05T04:47:39.202Z,30.80
2024-03-05T04:49:10.982Z,31.73
2024-03-05T04:50:43.227Z,31.90
2024-03-05T04:52:18.006Z,30.97
2024-03-05T04:53:50.810Z,32.10
2024-03-05T04:55:23.699Z,31.80
2024-03-05T04:56:55.738Z,31.33
2024-03-05T04:58:27.548Z,30.83
2024-03-05T04:59:59.673Z,32.30
2024-03-05T05:01:31.488Z,31.77
2024-03-05T05:03:03.380Z,30.87
2024-03-05T05:04:38.743Z,32.07
2024-03-05T05:06:11.730Z,32.30
2024-03-05T05:07:45.077Z,31.50
2024-03-05T05:09:16.895Z,30.70
2024-03-05T05:10:49.078Z,33.90
2024-03-05T05:12:20.905Z,31.00
2024-03-05T05:13:52.805Z,32.70
2024-03-05T05:15:24.829Z,30.50
2024-03-05T05:16:57.857Z,32.17
2024-03-05T05:18:29.797Z,32.10
2024-03-05T05:20:02.708Z,31.60
2024-03-05T05:21:34.780Z,33.20
2024-03-05T05:23:06.546Z,29.17
2024-03-05T05:24:38.678Z,33.47
2024-03-05T05:26:10.455Z,32.83
2024-03-05T05:27:42.546Z,33.60
2024-03-05T05:29:23.515Z,31.03
2024-03-05T05:31:04.775Z,31.60
2024-03-05T05:32:36.594Z,31.23
2024-03-05T05:34:09.234Z,30.47
2024-03-05T05:35:41.195Z,34.70
2024-03-05T05:37:13.045Z,31.23
2024-03-05T05:38:45.263Z,33.47
2024-03-05T05:40:20.511Z,31.47
2024-03-05T05:41:54.083Z,33.60
2024-03-05T05:43:25.868Z,32.73
2024-03-05T05:44:57.854Z,31.87
2024-03-05T05:46:29.700Z,32.17
2024-03-05T05:48:01.633Z,31.80
2024-03-05T05:49:33.718Z,31.40
2024-03-05T05:51:11.283Z,32.17
2024-03-05T05:52:44.001Z,32.83
2024-03-05T05:54:19.090Z,32.97
2024-03-05T05:55:52.799Z,31.57
2024-03-05T05:57:24.703Z,30.80
2024-03-05T05:58:56.496Z,31.40
2024-03-05T06:00:37.803Z,31.70
2024-03-05T06:02:12.380Z,32.60
2024-03-05T06:03:47.256Z,31.80
2024-03-05T06:05:19.358Z,31.27
2024-03-05T06:06:52.400Z,31.57
2024-03-05T06:08:24.200Z,31.73
2024-03-05T06:09:55.996Z,31.67
2024-03-05T06:11:27.953Z,31.10
2024-03-05T06:12:59.857Z,31.20
2024-03-05T06:14:32.579Z,32.50
2024-03-05T06:16:08.627Z,32.33
2024-03-05T06:17:43.997Z,33.00
2024-03-05T06:19:16.272Z,31.90
2024-03-05T06:20:49.249Z,31.87
2024-03-05T06:22:27.137Z,30.67
2024-03-05T06:24:05.914Z,31.13
2024-03-05T06:25:38.590Z,29.70
2024-03-05T06:27:10.445Z,30.33
2024-03-05T06:28:43.297Z,30.60
2024-03-05T06:30:22.495Z,31.20
2024-03-05T06:31:54.333Z,30.77
2024-03-05T06:33:26.122Z,29.80
2024-03-05T06:34:58.263Z,30.63
2024-03-05T06:36:31.710Z,30.17
2024-03-05T06:38:04.451Z,31.10
2024-03-05T06:39:43.280Z,30.80
2024-03-05T06:41:16.842Z,31.27
2024-03-05T06:43:06.288Z,29.83
2024-03-05T06:44:38.257Z,29.93
2024-03-05T06:46:11.176Z,30.33
2024-03-05T06:48:07.140Z,30.27
2024-03-05T06:49:44.431Z,31.30
2024-03-05T06:51:32.425Z,29.90
2024-03-05T06:53:23.884Z,29.30
2024-03-05T06:55:14.257Z,28.60
2024-03-05T06:56:46.253Z,32.70
2024-03-05T06:58:18.313Z,29.00
2024-03-05T06:59:50.789Z,30.43
2024-03-05T07:01:23.347Z,29.97
2024-03-05T07:02:55.228Z,30.40
2024-03-05T07:04:28.280Z,28.70
2024-03-05T07:06:00.069Z,31.00
2024-03-05T07:07:34.222Z,28.00
2024-03-05T07:09:06.072Z,28.83
2024-03-05T07:10:38.262Z,29.43
2024-03-05T07:12:10.069Z,28.97
2024-03-05T07:13:45.290Z,29.13
2024-03-05T07:15:18.698Z,28.60
2024-03-05T07:16:50.563Z,31.53
2024-03-05T07:18:22.623Z,29.80
2024-03-05T07:19:54.429Z,28.87
2024-03-05T07:21:26.527Z,28.87
2024-03-05T07:22:59.121Z,29.80
2024-03-05T07:24:31.240Z,29.30
2024-03-05T07:26:06.968Z,30.67
2024-03-05T07:27:40.792Z,28.33
2024-03-05T07:29:12.860Z,29.10
2024-03-05T07:30:44.670Z,29.23
2024-03-05T07:32:17.204Z,29.33
2024-03-05T07:33:52.826Z,29.37
2024-03-05T07:35:25.489Z,30.43
2024-03-05T07:36:57.447Z,29.60
2024-03-05T07:38:29.268Z,29.37
2024-03-05T07:40:10.472Z,29.00
2024-03-05T07:41:42.453Z,29.07
2024-03-05T07:43:14.674Z,29.80
2024-03-05T07:44:46.425Z,28.30
2024-03-05T07:46:20.979Z,29.73
2024-03-05T07:47:52.877Z,28.50
2024-03-05T07:49:24.685Z,29.77
2024-03-05T07:50:56.934Z,29.33
2024-03-05T07:52:28.889Z,28.67
2024-03-05T07:54:00.681Z,29.10
2024-03-05T07:55:45.406Z,28.20
2024-03-05T07:57:18.529Z,27.87
2024-03-05T07:58:50.402Z,27.77
2024-03-05T08:00:23.153Z,28.37
2024-03-05T08:01:56.705Z,28.00
2024-03-05T08:03:28.533Z,27.30
2024-03-05T08:05:01.138Z,28.43
2024-03-05T08:06:33.027Z,27.40
2024-03-05T08:08:05.677Z,29.73
2024-03-05T08:09:37.807Z,28.77
2024-03-05T08:11:09.737Z,29.07
2024-03-05T08:12:45.192Z,28.93
2024-03-05T08:14:16.976Z,27.73
2024-03-05T08:15:48.731Z,28.90
2024-03-05T08:17:20.613Z,28.40
2024-03-05T08:18:53.938Z,28.47
2024-03-05T08:20:27.297Z,29.20
2024-03-05T08:21:59.121Z,28.20
2024-03-05T08:23:31.170Z,28.40
2024-03-05T08:25:10.561Z,28.23
2024-03-05T08:26:42.311Z,28.47
2024-03-05T08:28:14.210Z,28.07
2024-03-05T08:29:46.206Z,28.83
2024-03-05T08:31:18.049Z,29.10
2024-03-05T08:32:51.497Z,27.30
2024-03-05T08:34:25.003Z,26.33
2024-03-05T08:35:57.463Z,26.47
2024-03-05T08:37:29.431Z,28.60
2024-03-05T08:39:01.271Z,28.23
2024-03-05T08:40:34.528Z,28.40
2024-03-05T08:42:06.584Z,27.27
2024-03-05T08:43:38.373Z,27.00
2024-03-05T08:45:11.189Z,27.50
2024-03-05T08:46:43.082Z,28.53
2024-03-05T08:48:14.961Z,26.57
2024-03-05T08:49:50.218Z,28.13
2024-03-05T08:51:22.039Z,26.80
2024-03-05T08:52:53.928Z,28.40
2024-03-05T08:54:26.930Z,29.03
2024-03-05T08:55:58.704Z,27.20
2024-03-05T08:57:30.534Z,27.13
2024-03-05T08:59:02.394Z,28.40
2024-03-05T09:00:42.044Z,27.33
2024-03-05T09:02:15.379Z,28.50
2024-03-05T09:03:47.233Z,28.07
2024-03-05T09:05:18.985Z,27.30
2024-03-05T09:06:51.246Z,27.17
2024-03-05T09:08:23.044Z,27.87
2024-03-05T09:09:54.864Z,27.80
2024-03-05T09:11:26.753Z,26.93
2024-03-05T09:12:59.525Z,27.23
2024-03-05T09:14:31.541Z,27.70
2024-03-05T09:16:03.576Z,27.37
2024-03-05T09:17:35.440Z,29.90
2024-03-05T09:19:07.575Z,29.90
2024-03-05T09:20:39.348Z,28.00
2024-03-05T09:22:11.353Z,28.30
2024-03-05T09:23:43.143Z,26.27
2024-03-05T09:25:16.900Z,28.53
2024-03-05T09:26:48.715Z,27.53
2024-03-05T09:28:20.727Z,27.40
2024-03-05T09:29:52.575Z,28.30
2024-03-05T09:31:24.391Z,27.70
2024-03-05T09:32:57.544Z,28.60
2024-03-05T09:34:29.387Z,27.33
2024-03-05T09:36:05.598Z,28.60
2024-03-05T09:37:37.982Z,28.10
2024-03-05T09:39:10.594Z,26.40
2024-03-05T09:40:43.010Z,28.10
2024-03-05T09:42:16.658Z,27.17
2024-03-05T09:43:50.107Z,28.40
2024-03-05T09:45:24.168Z,27.77
2024-03-05T09:46:56.071Z,28.40
2024-03-05T09:48:27.985Z,27.80
2024-03-05T09:50:02.434Z,27.20
2024-03-05T09:51:35.865Z,26.47
2024-03-05T09:53:08.613Z,26.63
2024-03-05T09:54:40.664Z,25.90
2024-03-05T09:56:16.816Z,25.70
2024-03-05T09:57:55.561Z,27.67
2024-03-05T09:59:27.358Z,26.20
2024-03-05T10:01:01.884Z,26.70
2024-03-05T10:02:34.414Z,25.17
2024-03-05T10:04:08.937Z,26.07
2024-03-05T10:05:41.551Z,26.80
2024-03-05T10:07:27.532Z,27.73
2024-03-05T10:08:59.376Z,26.17
2024-03-05T10:10:34.620Z,28.43
2024-03-05T10:12:06.711Z,26.60
2024-03-05T10:13:38.893Z,28.33
2024-03-05T10:15:19.767Z,26.03
2024-03-05T10:17:03.066Z,25.37
2024-03-05T10:18:35.671Z,26.10
2024-03-05T10:20:11.127Z,26.40
2024-03-05T10:21:44.182Z,26.27
2024-03-05T10:23:16.794Z,27.10
2024-03-05T10:24:49.339Z,25.90
2024-03-05T10:26:25.443Z,26.27
2024-03-05T10:28:03.400Z,26.37
2024-03-05T10:29:36.282Z,27.00
2024-03-05T10:31:08.071Z,26.93
2024-03-05T10:32:41.313Z,25.70
2024-03-05T10:34:16.990Z,27.67
2024-03-05T10:35:51.802Z,25.43
2024-03-05T10:37:23.592Z,25.33
2024-03-05T10:38:56.072Z,25.57
2024-03-05T10:40:35.756Z,25.90
2024-03-05T10:42:12.801Z,25.97
2024-03-05T10:43:45.326Z,24.70
2024-03-05T10:45:18.815Z,25.60
2024-03-05T10:46:53.652Z,25.00
2024-03-05T10:48:26.998Z,24.67
2024-03-05T10:50:03.054Z,24.00
2024-03-05T10:51:42.372Z,25.80
2024-03-05T10:53:17.478Z,24.73
2024-03-05T10:54:50.313Z,24.80
2024-03-05T10:56:29.108Z,24.03
2024-03-05T10:58:20.980Z,24.63
2024-03-05T10:59:54.960Z,24.00
2024-03-05T11:01:32.740Z,23.43
2024-03-05T11:03:09.685Z,23.37
2024-03-05T11:04:43.615Z,23.60
2024-03-05T11:06:18.153Z,22.37
2024-03-05T11:07:50.662Z,23.33
2024-03-05T11:09:24.110Z,23.27
2024-03-05T11:11:03.136Z,22.70
2024-03-05T11:12:35.092Z,22.60
2024-03-05T11:14:08.280Z,20.97
2024-03-05T11:15:40.362Z,20.13
2024-03-05T11:17:13.090Z,20.70
2024-03-05T11:18:47.939Z,20.23
2024-03-05T11:20:41.504Z,20.00
2024-03-05T11:22:21.718Z,19.10
2024-03-05T11:23:53.563Z,19.27
2024-03-05T11:25:33.796Z,18.60
2024-03-05T11:27:13.162Z,18.53
2024-03-05T11:28:45.155Z,18.53
2024-03-05T11:30:20.641Z,18.80
2024-03-05T11:31:53.944Z,19.03
2024-03-05T11:33:27.873Z,18.70
2024-03-05T11:35:04.766Z,18.63
2024-03-05T11:36:37.376Z,19.27
2024-03-05T11:38:11.750Z,19.37
2024-03-05T11:39:44.602Z,19.77
2024-03-05T11:41:26.519Z,19.50
2024-03-05T11:42:58.734Z,18.27
2024-03-05T11:44:35.694Z,19.40
2024-03-05T11:46:09.090Z,17.87
2024-03-05T11:47:43.063Z,17.50
2024-03-05T11:49:16.052Z,18.40
2024-03-05T11:50:55.772Z,17.87
2024-03-05T11:52:28.802Z,19.17
2024-03-05T11:54:00.829Z,17.07
2024-03-05T11:55:33.353Z,18.37
2024-03-05T11:57:05.283Z,17.07
2024-03-05T11:58:39.025Z,17.70
2024-03-05T12:00:17.666Z,16.77
2024-03-05T12:01:49.798Z,16.63
2024-03-05T12:03:21.708Z,16.20
2024-03-05T12:04:54.746Z,16.47
2024-03-05T12:06:26.620Z,17.07
2024-03-05T12:08:03.156Z,16.03
2024-03-05T12:09:38.865Z,17.27
2024-03-05T12:11:10.922Z,16.97
2024-03-05T12:12:42.819Z,16.70
2024-03-05T12:14:16.146Z,15.60
2024-03-05T12:15:48.001Z,16.03
2024-03-05T12:17:21.139Z,17.10
2024-03-05T12:18:59.672Z,15.83
2024-03-05T12:20:32.248Z,15.87
2024-03-05T12:22:04.957Z,16.43
2024-03-05T12:23:41.928Z,17.53
2024-03-05T12:25:15.328Z,18.53
2024-03-05T12:26:48.574Z,23.40
2024-03-05T12:28:20.408Z,29.00
2024-03-05T12:29:53.176Z,25.33
2024-03-05T12:31:25.485Z,22.13
2024-03-05T12:32:57.448Z,22.50
2024-03-05T12:34:29.720Z,23.10
2024-03-05T12:36:01.506Z,22.27
2024-03-05T12:37:35.436Z,21.70
2024-03-05T12:39:11.241Z,20.27
2024-03-05T12:40:43.095Z,20.27
2024-03-05T12:42:24.210Z,18.60
2024-03-05T12:43:56.860Z,18.10
2024-03-05T12:45:28.961Z,19.43
2024-03-05T12:47:20.931Z,17.50
2024-03-05T12:48:58.611Z,17.90
2024-03-05T12:50:33.797Z,16.63
2024-03-05T12:52:06.601Z,16.63
2024-03-05T12:53:38.782Z,17.43
2024-03-05T12:55:13.857Z,17.60
2024-03-05T12:56:46.503Z,14.97
2024-03-05T12:58:18.592Z,16.50
2024-03-05T12:59:50.402Z,14.23
2024-03-05T13:01:22.376Z,14.97
2024-03-05T13:02:54.581Z,14.63
2024-03-05T13:04:27.298Z,15.20
2024-03-05T13:05:59.149Z,14.07
2024-03-05T13:07:31.558Z,14.00
2024-03-05T13:09:06.421Z,13.07
2024-03-05T13:10:38.344Z,14.60
2024-03-05T13:12:10.254Z,15.50
2024-03-05T13:13:42.069Z,14.53
2024-03-05T13:15:15.477Z,13.27
2024-03-05T13:16:47.453Z,12.90
2024-03-05T13:18:19.429Z,13.30
2024-03-05T13:19:51.372Z,12.80
2024-03-05T13:21:23.291Z,12.90
2024-03-05T13:22:55.387Z,12.87
2024-03-05T13:24:27.463Z,12.23
2024-03-05T13:25:59.473Z,13.00
2024-03-05T13:27:31.530Z,13.83
2024-03-05T13:29:05.642Z,11.80
2024-03-05T13:30:37.474Z,12.13
2024-03-05T13:32:09.465Z,12.60
2024-03-05T13:33:41.268Z,11.63
2024-03-05T13:35:14.348Z,11.50
2024-03-05T13:36:47.751Z,11.73
2024-03-05T13:38:19.545Z,12.20
2024-03-05T13:39:51.367Z,11.47
2024-03-05T13:41:29.213Z,11.27
2024-03-05T13:43:01.709Z,10.70
2024-03-05T13:44:33.634Z,11.57
2024-03-05T13:46:05.446Z,12.00
2024-03-05T13:47:39.808Z,11.83
2024-03-05T13:49:12.403Z,11.90
2024-03-05T13:50:53.015Z,10.70
2024-03-05T13:52:26.865Z,11.37
2024-03-05T13:54:03.966Z,11.20
2024-03-05T13:55:35.755Z,10.80
2024-03-05T13:57:08.802Z,9.93
2024-03-05T13:58:40.930Z,11.17
2024-03-05T14:00:20.306Z,10.17
2024-03-05T14:01:52.158Z,11.07
2024-03-05T14:03:24.170Z,11.10
2024-03-05T14:04:56.055Z,10.43
2024-03-05T14:06:29.265Z,11.10
2024-03-05T14:08:01.459Z,11.53
2024-03-05T14:09:33.303Z,10.60
2024-03-05T14:11:08.698Z,9.77
2024-03-05T14:12:41.136Z,10.43
2024-03-05T14:14:21.911Z,10.43
2024-03-05T14:15:55.142Z,9.80
2024-03-05T14:17:27.000Z,9.33
2024-03-05T14:18:59.745Z,10.50
2024-03-05T14:20:33.381Z,9.30
2024-03-05T14:22:05.881Z,9.90
2024-03-05T14:23:41.535Z,9.67
2024-03-05T14:25:13.750Z,8.87
2024-03-05T14:26:45.529Z,9.50
2024-03-05T14:28:17.610Z,8.97
2024-03-05T14:29:49.510Z,8.67
2024-03-05T14:31:22.064Z,8.73
2024-03-05T14:32:58.872Z,8.47
2024-03-05T14:34:30.816Z,8.30
2024-03-05T14:36:02.898Z,8.67
2024-03-05T14:37:34.760Z,8.57
2024-03-05T14:39:09.425Z,8.70
2024-03-05T14:40:47.114Z,8.63
2024-03-05T14:42:18.969Z,8.30
2024-03-05T14:43:51.463Z,8.57
2024-03-05T14:45:23.565Z,8.60
2024-03-05T14:46:55.622Z,8.70
2024-03-05T14:48:27.979Z,7.57
2024-03-05T14:49:59.923Z,8.10
2024-03-05T14:51:33.912Z,8.00
2024-03-05T14:53:06.302Z,7.40
2024-03-05T14:54:40.681Z,7.00
2024-03-05T14:56:12.499Z,6.37
2024-03-05T14:57:45.786Z,6.47
2024-03-05T14:59:17.772Z,6.60
2024-03-05T15:00:49.662Z,6.27
2024-03-05T15:02:21.918Z,6.63
2024-03-05T15:03:53.824Z,6.37
2024-03-05T15:05:26.982Z,5.90
2024-03-05T15:06:58.843Z,6.53
2024-03-05T15:08:30.628Z,5.77
2024-03-05T15:10:08.266Z,6.50
2024-03-05T15:11:40.097Z,7.10
2024-03-05T15:13:12.073Z,6.57
2024-03-05T15:14:44.132Z,5.77
2024-03-05T15:16:15.947Z,5.80
2024-03-05T15:17:49.237Z,5.93
2024-03-05T15:19:21.071Z,5.63
2024-03-05T15:20:52.891Z,5.67
2024-03-05T15:22:24.723Z,5.70
2024-03-05T15:23:56.995Z,5.10
2024-03-05T15:25:28.934Z,4.30
2024-03-05T15:27:05.414Z,4.60
2024-03-05T15:28:38.513Z,4.93
2024-03-05T15:30:15.286Z,5.20
2024-03-05T15:31:47.139Z,4.50
2024-03-05T15:33:18.961Z,4.90
2024-03-05T15:34:50.813Z,5.40
2024-03-05T15:36:22.613Z,4.60
2024-03-05T15:37:54.858Z,4.20
2024-03-05T15:39:26.729Z,4.53
2024-03-05T15:40:58.848Z,4.40
2024-03-05T15:42:31.544Z,4.70
2024-03-05T15:44:05.007Z,4.70
2024-03-05T15:45:39.010Z,4.63
2024-03-05T15:47:14.259Z,4.40
2024-03-05T15:48:46.045Z,4.50
2024-03-05T15:50:19.527Z,4.87
2024-03-05T15:51:51.342Z,4.60
2024-03-05T15:53:25.621Z,4.03
2024-03-05T15:54:57.352Z,4.70
2024-03-05T15:56:58.430Z,4.67
2024-03-05T15:58:42.437Z,4.47
2024-03-05T16:00:17.268Z,4.23
2024-03-05T16:01:49.556Z,4.63
2024-03-05T16:03:22.458Z,5.27
2024-03-05T16:05:13.715Z,5.80
2024-03-05T16:06:51.104Z,4.80
2024-03-05T16:08:24.973Z,5.53
2024-03-05T16:09:59.739Z,5.80
2024-03-05T16:11:32.388Z,5.70
2024-03-05T16:13:06.032Z,6.50
2024-03-05T16:14:41.484Z,6.53
2024-03-05T16:16:16.179Z,6.33
2024-03-05T16:17:48.072Z,6.87
2024-03-05T16:19:21.757Z,7.10
2024-03-05T16:20:53.793Z,6.93
2024-03-05T16:22:25.791Z,7.10
2024-03-05T16:23:57.581Z,6.93
2024-03-05T16:25:29.938Z,7.00
2024-03-05T16:27:01.719Z,7.53
2024-03-05T16:28:38.528Z,7.67
2024-03-05T16:30:10.969Z,7.47
2024-03-05T16:31:42.965Z,7.80
2024-03-05T16:33:16.060Z,7.00
2024-03-05T16:34:48.010Z,7.23
2024-03-05T16:36:20.309Z,7.40
2024-03-05T16:37:52.850Z,7.20
2024-03-05T16:39:24.684Z,7.30
2024-03-05T16:40:57.697Z,7.90
2024-03-05T16:42:29.791Z,7.40
2024-03-05T16:44:03.260Z,7.47
2024-03-05T16:45:37.009Z,7.67
2024-03-05T16:47:08.969Z,7.40
2024-03-05T16:48:40.862Z,7.90
2024-03-05T16:50:14.301Z,7.40
2024-03-05T16:51:46.105Z,7.40
2024-03-05T16:53:18.185Z,7.03
2024-03-05T16:54:50.016Z,8.00
2024-03-05T16:56:22.864Z,7.63
2024-03-05T16:57:57.456Z,7.57
2024-03-05T16:59:30.306Z,8.07
2024-03-05T17:01:07.616Z,8.27
2024-03-05T17:02:50.027Z,8.10
2024-03-05T17:04:24.729Z,7.97
2024-03-05T17:05:58.229Z,7.93
2024-03-05T17:07:32.908Z,8.27
2024-03-05T17:09:08.395Z,7.80
2024-03-05T17:10:40.823Z,7.70
2024-03-05T17:12:13.759Z,7.97
2024-03-05T17:13:49.132Z,7.93
2024-03-05T17:15:21.566Z,8.10
2024-03-05T17:16:58.016Z,8.00
2024-03-05T17:18:32.819Z,7.47
2024-03-05T17:20:09.575Z,8.33
2024-03-05T17:21:41.873Z,8.20
2024-03-05T17:23:21.309Z,7.80
2024-03-05T17:24:58.631Z,7.73
2024-03-05T17:26:31.507Z,8.07
2024-03-05T17:28:05.513Z,8.30
2024-03-05T17:29:37.320Z,8.50
2024-03-05T17:31:09.628Z,8.57
2024-03-05T17:32:42.585Z,7.17
2024-03-05T17:34:14.438Z,8.83
2024-03-05T17:35:46.355Z,8.50
2024-03-05T17:37:18.553Z,8.20
2024-03-05T17:38:50.521Z,7.60
2024-03-05T17:40:22.904Z,8.33
2024-03-05T17:41:54.949Z,9.50
2024-03-05T17:43:26.779Z,8.80
2024-03-05T17:44:58.661Z,9.20
2024-03-05T17:46:30.610Z,8.80
2024-03-05T17:48:07.271Z,8.30
2024-03-05T17:49:40.082Z,8.67
2024-03-05T17:51:11.995Z,9.40
2024-03-05T17:52:48.736Z,9.30
2024-03-05T17:54:20.625Z,8.83
2024-03-05T17:55:53.645Z,10.20
2024-03-05T17:57:25.478Z,9.60
2024-03-05T17:58:57.562Z,8.90
2024-03-05T18:00:41.723Z,8.43
2024-03-05T18:02:16.414Z,9.03
2024-03-05T18:03:48.417Z,8.67
2024-03-05T18:05:20.471Z,8.90
2024-03-05T18:06:52.519Z,8.40
2024-03-05T18:08:24.462Z,9.03
2024-03-05T18:09:56.336Z,9.20
2024-03-05T18:11:29.444Z,9.80
2024-03-05T18:13:01.369Z,10.20
2024-03-05T18:14:33.774Z,9.60
2024-03-05T18:16:06.778Z,10.27
2024-03-05T18:17:41.797Z,9.53
2024-03-05T18:19:13.866Z,9.90
2024-03-05T18:20:46.410Z,10.30
2024-03-05T18:22:19.549Z,9.97
2024-03-05T18:23:51.420Z,9.97
2024-03-05T18:25:23.242Z,10.23
2024-03-05T18:26:55.050Z,9.50
2024-03-05T18:28:27.109Z,9.77
2024-03-05T18:29:58.949Z,9.37
2024-03-05T18:31:34.119Z,10.20
2024-03-05T18:33:08.402Z,9.90
2024-03-05T18:34:43.778Z,10.70
2024-03-05T18:36:16.929Z,9.50
2024-03-05T18:37:49.522Z,10.33
2024-03-05T18:39:23.885Z,9.57
2024-03-05T18:41:01.996Z,9.33
2024-03-05T18:42:34.073Z,9.50
2024-03-05T18:44:06.312Z,10.73
2024-03-05T18:45:38.652Z,9.70
2024-03-05T18:47:11.223Z,9.50
2024-03-05T18:48:43.049Z,9.03
2024-03-05T18:50:15.834Z,10.40
2024-03-05T18:51:48.060Z,10.20
2024-03-05T18:53:21.913Z,10.30
2024-03-05T18:54:55.673Z,9.40
2024-03-05T18:56:31.002Z,9.00
2024-03-05T18:58:08.386Z,9.40
2024-03-05T18:59:40.175Z,9.73
2024-03-05T19:01:15.265Z,9.60
2024-03-05T19:02:52.172Z,8.23
2024-03-05T19:04:24.050Z,9.27
2024-03-05T19:05:55.853Z,8.30
2024-03-05T19:07:30.066Z,8.87
2024-03-05T19:09:05.429Z,9.20
2024-03-05T19:10:38.335Z,8.87
2024-03-05T19:12:12.182Z,9.13
2024-03-05T19:13:44.088Z,9.30
2024-03-05T19:15:18.537Z,8.97
2024-03-05T19:16:50.753Z,8.97
2024-03-05T19:18:22.667Z,8.80
2024-03-05T19:19:54.713Z,10.10
2024-03-05T19:21:27.349Z,9.13
2024-03-05T19:22:59.489Z,8.53
2024-03-05T19:24:32.399Z,8.53
2024-03-05T19:26:04.574Z,8.80
2024-03-05T19:27:36.943Z,9.60
2024-03-05T19:29:08.960Z,9.73
2024-03-05T19:30:42.197Z,9.50
2024-03-05T19:32:14.122Z,9.73
2024-03-05T19:33:45.964Z,8.37
2024-03-05T19:35:18.749Z,9.60
2024-03-05T19:36:53.235Z,9.70
2024-03-05T19:38:25.321Z,9.40
2024-03-05T19:39:57.106Z,9.47
2024-03-05T19:41:28.892Z,9.63
2024-03-05T19:43:00.993Z,9.50
2024-03-05T19:44:33.618Z,8.90
2024-03-05T19:46:06.280Z,9.00
2024-03-05T19:47:38.666Z,8.60
2024-03-05T19:49:10.681Z,9.07
2024-03-05T19:50:42.555Z,9.73
2024-03-05T19:52:16.608Z,9.27
2024-03-05T19:53:49.373Z,9.40
2024-03-05T19:55:23.788Z,9.00
2024-03-05T19:56:56.923Z,10.20
2024-03-05T19:58:29.294Z,9.40
2024-03-05T20:00:03.245Z,10.57
2024-03-05T20:01:46.950Z,9.67
2024-03-05T20:03:18.809Z,9.17
2024-03-05T20:04:52.882Z,9.23
2024-03-05T20:06:24.699Z,9.33
2024-03-05T20:07:59.940Z,9.70
2024-03-05T20:09:31.753Z,9.17
2024-03-05T20:11:03.787Z,9.00
2024-03-05T20:12:36.369Z,9.00
2024-03-05T20:14:14.553Z,9.07